Carole L. Brent — WDD5964 — position and weather

sailwx.info

Track history (hours):
 
Tides and Currents Weather Stations Pressure Air Temp Water Temp Dewpoint Dewpoint Depression Visibility Wind Speed Wind Dir Waves Ship Positions

Carole L. Brent

Owner: Kirby Inland Marine, LP, Houston, TX. More information available from US FCC via Universal Licensing System and Coast Guard Vessel Documentation Center.

Last reported at 2017-Nov-07 03:04 UTC. Time now 2017-Nov-17 21:23 UTC.
Position N 32°41' W 091°06'.
Warning: this ship's position is 10 days out of date.

Length 211 m; draft 3 m.

Type: . MMSI: 367166440.

Date/timePositionNaut miles runAvg speedWind from/ knotsBaromVisibWave heightAir tempDewpointWater temp
2017-Nov-07 03:04N 32°41' W 091°06'1 6.6
2017-Nov-07 02:57N 32°40' W 091°07'3 4.9
2017-Nov-07 02:20N 32°38' W 091°09'0 1.0
2017-Nov-07 02:00N 32°38' W 091°09'2 3.7
2017-Nov-07 01:30N 32°36' W 091°09'3 6.0
2017-Nov-07 01:00N 32°34' W 091°06'3 5.3
2017-Nov-07 00:30N 32°31' W 091°06'3 6.0
2017-Nov-07 00:00N 32°28' W 091°07'3 6.3
2017-Nov-06 23:30N 32°26' W 091°04'3 6.3
2017-Nov-06 23:00N 32°25' W 091°00'3 5.1
2017-Nov-06 22:30N 32°23' W 091°00'2 4.4
2017-Nov-06 22:00N 32°21' W 090°58'1 2.2
2017-Nov-06 21:30N 32°21' W 090°57'3 5.6
2017-Nov-06 21:00N 32°20' W 090°54'3 6.5
2017-Nov-06 20:30N 32°17' W 090°56'  
2017-Oct-30 13:44N 31°51' W 091°18'18 9.7
2017-Oct-30 11:53N 32°06' W 091°06'3 7.5
2017-Oct-30 11:30N 32°07' W 091°03'510.8
2017-Oct-30 11:00N 32°12' W 090°60'612.1
2017-Oct-30 10:30N 32°17' W 090°56'4 7.2
2017-Oct-30 10:00N 32°21' W 090°57'5 9.1
2017-Oct-30 09:31N 32°25' W 090°60'612.3
2017-Oct-30 09:00N 32°28' W 091°06'612.0
2017-Oct-30 08:30N 32°34' W 091°06'  
Track history (hours):
 
Tides and Currents Weather Stations Pressure Air Temp Water Temp Dewpoint Dewpoint Depression Visibility Wind Speed Wind Dir Waves Ship Positions

Carole L. Brent

Owner: Kirby Inland Marine, LP, Houston, TX. More information available from US FCC via Universal Licensing System and Coast Guard Vessel Documentation Center.

Last reported at 2017-Nov-07 03:04 UTC. Time now 2017-Nov-17 21:23 UTC.
Position N 32°41' W 091°06'.
Warning: this ship's position is 10 days out of date.

Length 211 m; draft 3 m.

Type: . MMSI: 367166440.

Date/timePositionNaut miles runAvg speedWind from/ knotsBaromVisibWave heightAir tempDewpointWater temp
2017-Nov-07 03:04N 32°41' W 091°06'1 6.6
2017-Nov-07 02:57N 32°40' W 091°07'3 4.9
2017-Nov-07 02:20N 32°38' W 091°09'0 1.0
2017-Nov-07 02:00N 32°38' W 091°09'2 3.7
2017-Nov-07 01:30N 32°36' W 091°09'3 6.0
2017-Nov-07 01:00N 32°34' W 091°06'3 5.3
2017-Nov-07 00:30N 32°31' W 091°06'3 6.0
2017-Nov-07 00:00N 32°28' W 091°07'3 6.3
2017-Nov-06 23:30N 32°26' W 091°04'3 6.3
2017-Nov-06 23:00N 32°25' W 091°00'3 5.1
2017-Nov-06 22:30N 32°23' W 091°00'2 4.4
2017-Nov-06 22:00N 32°21' W 090°58'1 2.2
2017-Nov-06 21:30N 32°21' W 090°57'3 5.6
2017-Nov-06 21:00N 32°20' W 090°54'3 6.5
2017-Nov-06 20:30N 32°17' W 090°56'  
2017-Oct-30 13:44N 31°51' W 091°18'18 9.7
2017-Oct-30 11:53N 32°06' W 091°06'3 7.5
2017-Oct-30 11:30N 32°07' W 091°03'510.8
2017-Oct-30 11:00N 32°12' W 090°60'612.1
2017-Oct-30 10:30N 32°17' W 090°56'4 7.2
2017-Oct-30 10:00N 32°21' W 090°57'5 9.1
2017-Oct-30 09:31N 32°25' W 090°60'612.3
2017-Oct-30 09:00N 32°28' W 091°06'612.0
2017-Oct-30 08:30N 32°34' W 091°06'  

Dump ship's entire track history